Terminal Aerodrome Forecast
Issued by NWS Melbourne, FL

Home | Current Version | Previous Version | Text Only | Print | Product List | Glossary On
Versions: 1 2 3 4 5 6 7 8 9 10 11 12
992
FTUS42 KMLB 232331
TAFDAB
TAF
KDAB 232331Z 2400/2424 10007KT P6SM FEW030 SCT250
     FM240200 VRB03KT P6SM FEW020 BKN250
     FM241400 14005KT P6SM VCSH SCT030 SCT080 BKN250
     FM241800 11008KT P6SM VCTS SCT035CB BKN250=

USA.gov is the U.S. government's official web portal to all federal, state and local government web resources and services.